createdAt,value
2022-09-06T00:02:47.074Z,101098.13
2022-09-06T00:07:48.581Z,101119.34
2022-09-06T00:12:50.045Z,101131.16
2022-09-06T00:17:51.609Z,101125.38
2022-09-06T00:23:04.684Z,101111.16
2022-09-06T00:28:06.186Z,101112.53
2022-09-06T00:33:07.706Z,101113.91
2022-09-06T00:38:09.204Z,101119.75
2022-09-06T00:43:10.678Z,101108.78
2022-09-06T00:48:12.375Z,101113.31
2022-09-06T00:53:14.475Z,101119.00
2022-09-06T00:58:16.236Z,101122.38
2022-09-06T01:03:19.399Z,101128.66
2022-09-06T01:08:54.787Z,101130.28
2022-09-06T01:14:10.531Z,101113.25
2022-09-06T01:19:20.749Z,101126.03
2022-09-06T01:24:47.071Z,101108.44
2022-09-06T01:29:52.932Z,101105.56
2022-09-06T01:35:05.310Z,101105.84
2022-09-06T01:40:07.704Z,101104.22
2022-09-06T01:45:14.091Z,101103.03
2022-09-06T01:50:28.140Z,101080.41
2022-09-06T01:55:43.860Z,101066.88
2022-09-06T02:00:52.793Z,101062.09
2022-09-06T02:06:00.120Z,101053.06
2022-09-06T02:11:04.153Z,101051.28
2022-09-06T02:16:08.164Z,101057.66
2022-09-06T02:21:15.477Z,101046.69
2022-09-06T02:26:21.754Z,101050.13
2022-09-06T02:31:31.805Z,101054.41
2022-09-06T02:36:36.729Z,101048.44
2022-09-06T02:41:40.884Z,101025.06
2022-09-06T02:46:42.479Z,101011.91
2022-09-06T02:51:44.237Z,100999.22
2022-09-06T02:56:50.185Z,100981.81
2022-09-06T03:01:53.778Z,100987.19
2022-09-06T03:06:56.413Z,100997.63
2022-09-06T03:11:57.918Z,101010.19
2022-09-06T03:16:59.545Z,100990.97
2022-09-06T03:22:01.132Z,100994.22
2022-09-06T03:27:02.724Z,100997.28
2022-09-06T03:32:04.433Z,101000.34
2022-09-06T03:37:06.049Z,100998.81
2022-09-06T03:42:07.921Z,100993.69
2022-09-06T03:47:09.697Z,100995.25
2022-09-06T03:52:11.724Z,101004.75
2022-09-06T03:57:13.536Z,101013.50
2022-09-06T04:02:15.585Z,101015.03
2022-09-06T04:07:17.315Z,101025.47
2022-09-06T04:12:18.878Z,101019.28
2022-09-06T04:17:20.457Z,101013.88
2022-09-06T04:22:22.452Z,101016.81
2022-09-06T04:27:24.097Z,101013.22
2022-09-06T04:32:25.917Z,101006.38
2022-09-06T04:37:27.733Z,101003.00
2022-09-06T04:42:30.095Z,100986.88
2022-09-06T04:47:31.668Z,100996.56
2022-09-06T04:52:33.272Z,100997.53
2022-09-06T04:57:34.789Z,101008.06
2022-09-06T05:02:36.385Z,101009.31
2022-09-06T05:07:37.968Z,101018.06
2022-09-06T05:12:43.586Z,101023.06
2022-09-06T05:17:46.020Z,101025.06
2022-09-06T05:22:56.393Z,101029.22
2022-09-06T05:27:57.936Z,101028.06
2022-09-06T05:32:59.453Z,101021.53
2022-09-06T05:38:00.994Z,101016.53
2022-09-06T05:43:02.598Z,101017.84
2022-09-06T05:48:04.644Z,101032.72
2022-09-06T05:53:06.249Z,101032.16
2022-09-06T05:58:07.796Z,101024.47
2022-09-06T06:03:09.345Z,101029.47
2022-09-06T06:08:11.288Z,101025.22
2022-09-06T06:13:12.781Z,101027.56
2022-09-06T06:18:14.320Z,101027.97
2022-09-06T06:23:15.957Z,101022.19
2022-09-06T06:28:17.493Z,101016.59
2022-09-06T06:33:19.300Z,101019.97
2022-09-06T06:38:21.227Z,101012.94
2022-09-06T06:43:22.867Z,101005.13
2022-09-06T06:48:24.473Z,101002.91
2022-09-06T06:53:26.433Z,100997.22
2022-09-06T06:58:28.061Z,101016.56
2022-09-06T07:03:29.878Z,101012.47
2022-09-06T07:08:31.447Z,101008.88
2022-09-06T07:13:36.661Z,101008.06
2022-09-06T07:18:42.027Z,101010.28
2022-09-06T07:29:07.218Z,101016.84
2022-09-06T07:34:09.280Z,101006.72
2022-09-06T07:39:11.093Z,101003.56
2022-09-06T07:44:12.627Z,101007.16
2022-09-06T07:49:14.121Z,101014.09
2022-09-06T07:54:31.557Z,101016.25
2022-09-06T07:59:33.244Z,101018.41
2022-09-06T08:04:34.753Z,101022.34
2022-09-06T08:09:36.672Z,101016.97
2022-09-06T08:14:38.305Z,101020.28
2022-09-06T08:19:39.900Z,101007.84
2022-09-06T08:24:41.453Z,101006.72
2022-09-06T08:29:43.001Z,101008.22
2022-09-06T08:34:44.515Z,101007.31
2022-09-06T08:39:46.097Z,101005.16
2022-09-06T08:50:01.773Z,100990.22
2022-09-06T08:55:25.078Z,100995.16
2022-09-06T09:00:26.741Z,100996.16
2022-09-06T09:05:32.512Z,100998.03
2022-09-06T09:11:01.245Z,100996.41
2022-09-06T09:16:02.848Z,100992.94
2022-09-06T09:21:04.776Z,100980.59
2022-09-06T09:26:11.922Z,100974.75
2022-09-06T09:31:14.171Z,100966.81
2022-09-06T09:36:21.289Z,100953.25
2022-09-06T09:41:32.337Z,100955.50
2022-09-06T09:46:35.755Z,100947.81
2022-09-06T09:51:43.151Z,100944.63
2022-09-06T09:56:49.691Z,100959.16
2022-09-06T10:01:55.999Z,100976.72
2022-09-06T10:07:14.904Z,100981.69
2022-09-06T10:12:19.271Z,100971.50
2022-09-06T10:17:32.407Z,100965.34
2022-09-06T10:22:42.749Z,100965.72
2022-09-06T10:28:12.885Z,100956.56
2022-09-06T10:33:23.141Z,100950.63
2022-09-06T10:38:41.619Z,100945.91
2022-09-06T10:44:01.223Z,100944.66
2022-09-06T10:49:03.121Z,100944.19
2022-09-06T10:54:13.263Z,100938.72
2022-09-06T11:10:12.781Z,100933.38
2022-09-06T11:15:16.116Z,100933.72
2022-09-06T11:20:37.997Z,100936.28
2022-09-06T11:26:00.072Z,100935.59
2022-09-06T11:31:03.524Z,100941.00
2022-09-06T11:36:35.074Z,100944.03
2022-09-06T11:41:41.576Z,100938.28
2022-09-06T11:46:43.652Z,100925.75
2022-09-06T11:51:46.720Z,100929.34
2022-09-06T11:57:00.181Z,100927.34
2022-09-06T12:02:07.733Z,100926.59
2022-09-06T12:07:13.072Z,100918.59
2022-09-06T12:12:48.532Z,100918.59
2022-09-06T12:17:50.057Z,100901.88
2022-09-06T12:22:52.369Z,100907.31
2022-09-06T12:28:00.305Z,100905.22
2022-09-06T12:33:06.502Z,100899.91
2022-09-06T12:38:13.225Z,100895.94
2022-09-06T12:43:17.010Z,100887.31
2022-09-06T12:48:33.466Z,100882.66
2022-09-06T12:53:35.584Z,100880.50
2022-09-06T12:58:38.627Z,100885.75
2022-09-06T13:03:45.629Z,100884.31
2022-09-06T13:08:53.605Z,100878.06
2022-09-06T13:13:55.681Z,100876.72
2022-09-06T13:19:33.851Z,100867.06
2022-09-06T13:24:35.440Z,100864.56
2022-09-06T13:29:36.959Z,100869.97
2022-09-06T13:34:48.931Z,100856.31
2022-09-06T13:39:50.969Z,100844.72
2022-09-06T13:44:52.578Z,100846.91
2022-09-06T13:49:55.147Z,100831.75
2022-09-06T13:54:56.593Z,100832.19
2022-09-06T13:59:58.056Z,100821.84
2022-09-06T14:04:59.520Z,100815.81
2022-09-06T14:10:01.212Z,100817.56
2022-09-06T14:15:02.873Z,100821.75
2022-09-06T14:20:04.729Z,100828.91
2022-09-06T14:25:07.016Z,100819.75
2022-09-06T14:30:09.095Z,100822.78
2022-09-06T14:35:11.274Z,100827.25
2022-09-06T14:40:13.048Z,100816.03
2022-09-06T14:45:14.880Z,100817.31
2022-09-06T14:50:16.858Z,100805.50
2022-09-06T14:55:18.684Z,100804.31
2022-09-06T15:00:20.401Z,100801.25
2022-09-06T15:05:21.920Z,100779.00
2022-09-06T15:10:23.717Z,100776.53
2022-09-06T15:15:25.732Z,100777.88
2022-09-06T15:20:27.282Z,100769.91
2022-09-06T15:25:28.810Z,100761.94
2022-09-06T15:30:30.386Z,100751.34
2022-09-06T15:35:33.386Z,100748.50
2022-09-06T15:40:35.002Z,100755.38
2022-09-06T15:45:48.463Z,100752.91
2022-09-06T15:50:51.843Z,100752.47
2022-09-06T15:55:58.680Z,100742.94
2022-09-06T16:01:04.280Z,100732.13
2022-09-06T16:11:24.529Z,100725.00
2022-09-06T16:16:26.394Z,100723.81
2022-09-06T16:21:31.993Z,100731.78
2022-09-06T16:26:36.517Z,100723.13
2022-09-06T16:31:40.563Z,100724.75
2022-09-06T16:36:42.380Z,100725.41
2022-09-06T16:41:46.239Z,100724.44
2022-09-06T16:46:49.778Z,100713.06
2022-09-06T16:51:51.546Z,100708.19
2022-09-06T16:56:53.877Z,100709.19
2022-09-06T17:01:56.075Z,100711.69
2022-09-06T17:06:57.867Z,100709.19
2022-09-06T17:11:59.752Z,100710.13
2022-09-06T17:17:07.471Z,100701.16
2022-09-06T17:22:11.403Z,100704.25
2022-09-06T17:27:13.273Z,100705.25
2022-09-06T17:32:14.884Z,100698.44
2022-09-06T17:37:16.768Z,100703.13
2022-09-06T17:42:18.649Z,100705.06
2022-09-06T17:47:20.600Z,100704.25
2022-09-06T17:52:22.388Z,100698.69
2022-09-06T17:57:24.019Z,100695.72
2022-09-06T18:02:25.567Z,100701.97
2022-09-06T18:07:27.106Z,100693.06
2022-09-06T18:12:29.494Z,100685.03
2022-09-06T18:17:31.389Z,100696.09
2022-09-06T18:22:33.115Z,100701.78
2022-09-06T18:27:35.295Z,100693.97
2022-09-06T18:32:36.871Z,100690.56
2022-09-06T18:37:38.707Z,100679.34
2022-09-06T18:42:44.785Z,100677.19
2022-09-06T18:47:47.155Z,100680.31
2022-09-06T18:52:48.945Z,100680.09
2022-09-06T18:57:50.637Z,100680.63
2022-09-06T19:02:52.510Z,100672.16
2022-09-06T19:07:54.079Z,100664.41
2022-09-06T19:12:57.029Z,100670.84
2022-09-06T19:17:58.731Z,100666.25
2022-09-06T19:23:00.476Z,100668.22
2022-09-06T19:28:02.306Z,100658.16
2022-09-06T19:33:04.249Z,100646.94
2022-09-06T19:38:05.819Z,100647.75
2022-09-06T19:43:07.390Z,100644.28
2022-09-06T19:48:10.242Z,100639.91
2022-09-06T19:53:12.146Z,100642.94
2022-09-06T19:58:13.871Z,100631.75
2022-09-06T20:03:15.451Z,100636.00
2022-09-06T20:08:17.788Z,100619.09
2022-09-06T20:13:19.432Z,100615.28
2022-09-06T20:18:21.446Z,100614.44
2022-09-06T20:23:23.096Z,100619.31
2022-09-06T20:28:24.702Z,100630.19
2022-09-06T20:33:26.632Z,100632.91
2022-09-06T20:38:32.410Z,100628.09
2022-09-06T20:43:36.446Z,100638.59
2022-09-06T20:48:43.647Z,100620.13
2022-09-06T20:53:48.618Z,100641.44
2022-09-06T20:59:00.558Z,100639.63
2022-09-06T21:04:04.168Z,100638.88
2022-09-06T21:09:08.785Z,100640.44
2022-09-06T21:14:11.568Z,100636.00
2022-09-06T21:19:13.684Z,100631.25
2022-09-06T21:24:15.377Z,100630.69
2022-09-06T21:29:16.921Z,100620.25
2022-09-06T21:34:18.508Z,100632.09
2022-09-06T21:39:20.121Z,100619.69
2022-09-06T21:44:21.859Z,100621.88
2022-09-06T21:49:23.605Z,100611.81
2022-09-06T21:54:25.437Z,100605.59
2022-09-06T21:59:27.224Z,100617.75
2022-09-06T22:04:29.252Z,100607.00
2022-09-06T22:09:30.785Z,100585.53
2022-09-06T22:14:32.366Z,100571.25
2022-09-06T22:19:33.934Z,100564.09
2022-09-06T22:24:35.742Z,100549.56
2022-09-06T22:29:37.429Z,100537.72
2022-09-06T22:34:39.137Z,100513.94
2022-09-06T22:39:41.776Z,100520.47
2022-09-06T22:44:43.457Z,100512.19
2022-09-06T22:49:46.045Z,100520.53
2022-09-06T22:54:47.833Z,100576.88
2022-09-06T22:59:49.693Z,100688.16
2022-09-06T23:04:51.414Z,100793.28
2022-09-06T23:09:53.020Z,100865.84
2022-09-06T23:28:28.063Z,100824.00
2022-09-06T23:33:30.845Z,100809.09
2022-09-06T23:38:37.103Z,100790.63
2022-09-06T23:43:40.458Z,100770.31
2022-09-06T23:48:44.052Z,100765.22
2022-09-06T23:53:45.996Z,100768.78
2022-09-06T23:58:47.666Z,100766.16
